sensor_id;sensor_type;location;lat;lon;timestamp;temperature;humidity
80236;DHT22;69543;42.138;24.742;2023-05-10T00:01:46;24.70;39.60
80236;DHT22;69543;42.138;24.742;2023-05-10T00:04:11;24.70;39.60
80236;DHT22;69543;42.138;24.742;2023-05-10T00:06:37;24.70;39.60
80236;DHT22;69543;42.138;24.742;2023-05-10T00:09:03;24.70;39.70
80236;DHT22;69543;42.138;24.742;2023-05-10T00:11:29;24.60;39.50
80236;DHT22;69543;42.138;24.742;2023-05-10T00:13:55;24.60;39.50
80236;DHT22;69543;42.138;24.742;2023-05-10T00:16:21;24.70;39.60
80236;DHT22;69543;42.138;24.742;2023-05-10T00:18:46;24.60;39.70
80236;DHT22;69543;42.138;24.742;2023-05-10T00:21:12;24.60;39.70
80236;DHT22;69543;42.138;24.742;2023-05-10T00:23:38;24.60;39.50
80236;DHT22;69543;42.138;24.742;2023-05-10T00:26:03;24.70;39.60
80236;DHT22;69543;42.138;24.742;2023-05-10T00:28:29;24.60;39.50
80236;DHT22;69543;42.138;24.742;2023-05-10T00:30:55;24.60;39.50
80236;DHT22;69543;42.138;24.742;2023-05-10T00:33:21;24.60;39.50
80236;DHT22;69543;42.138;24.742;2023-05-10T00:35:46;24.60;39.50
80236;DHT22;69543;42.138;24.742;2023-05-10T00:38:12;24.60;39.50
80236;DHT22;69543;42.138;24.742;2023-05-10T00:40:37;24.60;39.50
80236;DHT22;69543;42.138;24.742;2023-05-10T00:43:03;24.60;39.50
80236;DHT22;69543;42.138;24.742;2023-05-10T00:45:31;24.60;39.50
80236;DHT22;69543;42.138;24.742;2023-05-10T00:47:59;24.60;39.50
80236;DHT22;69543;42.138;24.742;2023-05-10T00:50:25;24.60;39.50
80236;DHT22;69543;42.138;24.742;2023-05-10T00:52:51;24.60;39.50
80236;DHT22;69543;42.138;24.742;2023-05-10T00:55:18;24.60;39.50
80236;DHT22;69543;42.138;24.742;2023-05-10T00:57:44;24.70;39.60
80236;DHT22;69543;42.138;24.742;2023-05-10T01:00:10;24.60;39.50
80236;DHT22;69543;42.138;24.742;2023-05-10T01:02:36;24.60;39.50
80236;DHT22;69543;42.138;24.742;2023-05-10T01:05:03;24.60;39.50
80236;DHT22;69543;42.138;24.742;2023-05-10T01:07:29;24.60;39.50
80236;DHT22;69543;42.138;24.742;2023-05-10T01:09:55;24.60;39.50
80236;DHT22;69543;42.138;24.742;2023-05-10T01:12:21;24.60;39.60
80236;DHT22;69543;42.138;24.742;2023-05-10T01:14:47;24.60;39.50
80236;DHT22;69543;42.138;24.742;2023-05-10T01:17:13;24.60;39.50
80236;DHT22;69543;42.138;24.742;2023-05-10T01:19:39;24.60;39.50
80236;DHT22;69543;42.138;24.742;2023-05-10T01:33:17;24.60;39.30
80236;DHT22;69543;42.138;24.742;2023-05-10T01:38:27;24.60;39.40
80236;DHT22;69543;42.138;24.742;2023-05-10T01:46:37;24.60;39.40
80236;DHT22;69543;42.138;24.742;2023-05-10T01:49:11;24.50;39.50
80236;DHT22;69543;42.138;24.742;2023-05-10T01:51:44;24.50;40.50
80236;DHT22;69543;42.138;24.742;2023-05-10T01:54:11;24.60;39.50
80236;DHT22;69543;42.138;24.742;2023-05-10T01:56:39;24.50;39.30
80236;DHT22;69543;42.138;24.742;2023-05-10T01:59:11;24.50;39.40
80236;DHT22;69543;42.138;24.742;2023-05-10T02:01:39;24.50;39.30
80236;DHT22;69543;42.138;24.742;2023-05-10T02:04:06;24.50;39.40
80236;DHT22;69543;42.138;24.742;2023-05-10T02:06:33;24.60;39.40
80236;DHT22;69543;42.138;24.742;2023-05-10T02:09:01;24.50;39.30
80236;DHT22;69543;42.138;24.742;2023-05-10T02:11:28;24.60;39.30
80236;DHT22;69543;42.138;24.742;2023-05-10T02:13:55;24.50;39.20
80236;DHT22;69543;42.138;24.742;2023-05-10T02:16:24;24.60;39.30
80236;DHT22;69543;42.138;24.742;2023-05-10T02:18:52;24.50;39.30
80236;DHT22;69543;42.138;24.742;2023-05-10T02:21:19;24.50;39.20
80236;DHT22;69543;42.138;24.742;2023-05-10T02:23:46;24.60;39.30
80236;DHT22;69543;42.138;24.742;2023-05-10T02:26:14;24.50;39.20
80236;DHT22;69543;42.138;24.742;2023-05-10T02:28:40;24.60;39.30
80236;DHT22;69543;42.138;24.742;2023-05-10T02:31:08;24.50;39.30
80236;DHT22;69543;42.138;24.742;2023-05-10T02:33:38;24.50;39.20
80236;DHT22;69543;42.138;24.742;2023-05-10T02:36:07;24.60;39.30
80236;DHT22;69543;42.138;24.742;2023-05-10T02:38:34;24.50;39.20
80236;DHT22;69543;42.138;24.742;2023-05-10T02:41:02;24.60;39.40
80236;DHT22;69543;42.138;24.742;2023-05-10T02:43:32;24.50;39.30
80236;DHT22;69543;42.138;24.742;2023-05-10T02:45:58;24.50;39.20
80236;DHT22;69543;42.138;24.742;2023-05-10T02:48:24;24.50;39.30
80236;DHT22;69543;42.138;24.742;2023-05-10T02:50:52;24.60;39.30
80236;DHT22;69543;42.138;24.742;2023-05-10T02:53:23;24.50;39.20
80236;DHT22;69543;42.138;24.742;2023-05-10T02:55:51;24.50;39.20
80236;DHT22;69543;42.138;24.742;2023-05-10T02:58:18;24.50;39.20
80236;DHT22;69543;42.138;24.742;2023-05-10T03:00:46;24.50;39.30
80236;DHT22;69543;42.138;24.742;2023-05-10T03:03:12;24.50;39.30
80236;DHT22;69543;42.138;24.742;2023-05-10T03:05:37;24.50;39.30
80236;DHT22;69543;42.138;24.742;2023-05-10T03:08:03;24.50;39.20
80236;DHT22;69543;42.138;24.742;2023-05-10T03:10:30;24.50;39.30
80236;DHT22;69543;42.138;24.742;2023-05-10T03:18:29;24.50;39.30
80236;DHT22;69543;42.138;24.742;2023-05-10T03:21:04;24.50;39.20
80236;DHT22;69543;42.138;24.742;2023-05-10T03:24:07;24.50;39.30
80236;DHT22;69543;42.138;24.742;2023-05-10T03:26:34;24.50;39.20
80236;DHT22;69543;42.138;24.742;2023-05-10T03:29:00;24.50;39.30
80236;DHT22;69543;42.138;24.742;2023-05-10T03:31:26;24.50;39.20
80236;DHT22;69543;42.138;24.742;2023-05-10T03:33:52;24.50;39.20
80236;DHT22;69543;42.138;24.742;2023-05-10T03:36:19;24.50;39.20
80236;DHT22;69543;42.138;24.742;2023-05-10T03:38:44;24.50;39.20
80236;DHT22;69543;42.138;24.742;2023-05-10T03:41:10;24.50;39.20
80236;DHT22;69543;42.138;24.742;2023-05-10T03:43:37;24.50;39.20
80236;DHT22;69543;42.138;24.742;2023-05-10T03:46:04;24.50;39.20
80236;DHT22;69543;42.138;24.742;2023-05-10T03:48:30;24.50;39.10
80236;DHT22;69543;42.138;24.742;2023-05-10T03:50:55;24.50;38.90
80236;DHT22;69543;42.138;24.742;2023-05-10T03:53:21;24.50;38.30
80236;DHT22;69543;42.138;24.742;2023-05-10T03:55:48;24.60;36.80
80236;DHT22;69543;42.138;24.742;2023-05-10T03:58:14;24.50;35.90
80236;DHT22;69543;42.138;24.742;2023-05-10T04:00:39;24.50;35.50
80236;DHT22;69543;42.138;24.742;2023-05-10T04:03:13;24.50;35.30
80236;DHT22;69543;42.138;24.742;2023-05-10T04:05:39;24.50;35.30
80236;DHT22;69543;42.138;24.742;2023-05-10T04:08:05;24.50;35.00
80236;DHT22;69543;42.138;24.742;2023-05-10T04:10:31;24.50;34.90
80236;DHT22;69543;42.138;24.742;2023-05-10T04:12:57;24.40;34.70
80236;DHT22;69543;42.138;24.742;2023-05-10T04:15:22;24.50;34.70
80236;DHT22;69543;42.138;24.742;2023-05-10T04:17:49;24.50;34.50
80236;DHT22;69543;42.138;24.742;2023-05-10T04:20:16;24.40;34.20
80236;DHT22;69543;42.138;24.742;2023-05-10T04:22:41;24.50;34.40
80236;DHT22;69543;42.138;24.742;2023-05-10T04:25:07;24.40;34.50
80236;DHT22;69543;42.138;24.742;2023-05-10T04:27:33;24.40;34.10
80236;DHT22;69543;42.138;24.742;2023-05-10T04:29:59;24.40;34.30
80236;DHT22;69543;42.138;24.742;2023-05-10T04:32:25;24.30;34.40
80236;DHT22;69543;42.138;24.742;2023-05-10T04:34:50;24.30;34.10
80236;DHT22;69543;42.138;24.742;2023-05-10T04:37:17;24.30;34.30
80236;DHT22;69543;42.138;24.742;2023-05-10T04:39:43;24.20;34.30
80236;DHT22;69543;42.138;24.742;2023-05-10T04:42:09;24.20;34.30
80236;DHT22;69543;42.138;24.742;2023-05-10T04:44:35;24.20;34.20
80236;DHT22;69543;42.138;24.742;2023-05-10T04:47:01;24.20;34.30
80236;DHT22;69543;42.138;24.742;2023-05-10T04:49:28;24.10;34.60
80236;DHT22;69543;42.138;24.742;2023-05-10T04:51:53;24.10;36.30
80236;DHT22;69543;42.138;24.742;2023-05-10T04:54:19;24.10;38.30
80236;DHT22;69543;42.138;24.742;2023-05-10T04:56:45;24.10;40.40
80236;DHT22;69543;42.138;24.742;2023-05-10T04:59:10;24.10;39.30
80236;DHT22;69543;42.138;24.742;2023-05-10T05:01:36;24.10;38.30
80236;DHT22;69543;42.138;24.742;2023-05-10T05:04:02;24.10;37.80
80236;DHT22;69543;42.138;24.742;2023-05-10T05:06:27;24.10;37.30
80236;DHT22;69543;42.138;24.742;2023-05-10T05:08:53;24.10;37.00
80236;DHT22;69543;42.138;24.742;2023-05-10T05:11:19;24.10;37.60
80236;DHT22;69543;42.138;24.742;2023-05-10T05:13:45;24.00;37.60
80236;DHT22;69543;42.138;24.742;2023-05-10T05:16:11;24.00;36.90
80236;DHT22;69543;42.138;24.742;2023-05-10T05:18:37;24.10;36.50
80236;DHT22;69543;42.138;24.742;2023-05-10T05:21:02;24.00;35.90
80236;DHT22;69543;42.138;24.742;2023-05-10T05:23:28;24.00;35.50
80236;DHT22;69543;42.138;24.742;2023-05-10T05:25:54;24.00;35.80
80236;DHT22;69543;42.138;24.742;2023-05-10T05:28:20;24.00;36.40
80236;DHT22;69543;42.138;24.742;2023-05-10T05:30:46;24.00;35.60
80236;DHT22;69543;42.138;24.742;2023-05-10T05:33:15;24.00;36.50
80236;DHT22;69543;42.138;24.742;2023-05-10T05:35:41;24.00;36.40
80236;DHT22;69543;42.138;24.742;2023-05-10T05:38:10;24.00;35.80
80236;DHT22;69543;42.138;24.742;2023-05-10T05:40:35;24.00;35.50
80236;DHT22;69543;42.138;24.742;2023-05-10T05:43:01;24.00;35.00
80236;DHT22;69543;42.138;24.742;2023-05-10T05:45:26;24.00;34.90
80236;DHT22;69543;42.138;24.742;2023-05-10T05:47:52;24.00;35.00
80236;DHT22;69543;42.138;24.742;2023-05-10T05:50:18;23.90;34.80
80236;DHT22;69543;42.138;24.742;2023-05-10T05:52:43;24.00;36.30
80236;DHT22;69543;42.138;24.742;2023-05-10T05:55:09;24.00;35.70
80236;DHT22;69543;42.138;24.742;2023-05-10T05:57:35;24.00;35.70
80236;DHT22;69543;42.138;24.742;2023-05-10T06:00:00;23.90;36.30
80236;DHT22;69543;42.138;24.742;2023-05-10T06:02:26;23.90;36.90
80236;DHT22;69543;42.138;24.742;2023-05-10T06:04:52;23.90;36.90
80236;DHT22;69543;42.138;24.742;2023-05-10T06:07:17;23.90;36.50
80236;DHT22;69543;42.138;24.742;2023-05-10T06:09:43;23.90;36.30
80236;DHT22;69543;42.138;24.742;2023-05-10T06:12:09;23.90;36.40
80236;DHT22;69543;42.138;24.742;2023-05-10T06:14:35;24.00;36.40
80236;DHT22;69543;42.138;24.742;2023-05-10T06:17:00;24.00;36.90
80236;DHT22;69543;42.138;24.742;2023-05-10T06:19:29;24.00;36.90
80236;DHT22;69543;42.138;24.742;2023-05-10T06:21:55;24.00;37.20
80236;DHT22;69543;42.138;24.742;2023-05-10T06:24:21;24.00;37.30
80236;DHT22;69543;42.138;24.742;2023-05-10T06:26:47;24.00;38.30
80236;DHT22;69543;42.138;24.742;2023-05-10T06:29:15;24.00;37.20
80236;DHT22;69543;42.138;24.742;2023-05-10T06:31:40;24.10;37.30
80236;DHT22;69543;42.138;24.742;2023-05-10T06:34:06;24.10;37.30
80236;DHT22;69543;42.138;24.742;2023-05-10T06:36:33;24.10;37.30
80236;DHT22;69543;42.138;24.742;2023-05-10T06:38:59;24.10;37.40
80236;DHT22;69543;42.138;24.742;2023-05-10T06:41:24;24.10;37.50
80236;DHT22;69543;42.138;24.742;2023-05-10T06:43:50;24.10;37.50
80236;DHT22;69543;42.138;24.742;2023-05-10T06:46:16;24.20;37.70
80236;DHT22;69543;42.138;24.742;2023-05-10T06:48:41;24.20;37.80
80236;DHT22;69543;42.138;24.742;2023-05-10T06:51:07;24.20;37.90
80236;DHT22;69543;42.138;24.742;2023-05-10T06:53:33;24.20;38.00
80236;DHT22;69543;42.138;24.742;2023-05-10T06:55:58;24.20;38.10
80236;DHT22;69543;42.138;24.742;2023-05-10T06:58:24;24.30;38.10
80236;DHT22;69543;42.138;24.742;2023-05-10T07:00:50;24.30;38.20
80236;DHT22;69543;42.138;24.742;2023-05-10T07:03:15;24.30;38.30
80236;DHT22;69543;42.138;24.742;2023-05-10T07:05:41;24.40;38.40
80236;DHT22;69543;42.138;24.742;2023-05-10T07:08:07;24.40;38.40
80236;DHT22;69543;42.138;24.742;2023-05-10T07:10:33;24.40;38.40
80236;DHT22;69543;42.138;24.742;2023-05-10T07:12:59;24.40;38.40
80236;DHT22;69543;42.138;24.742;2023-05-10T07:15:26;24.40;38.50
80236;DHT22;69543;42.138;24.742;2023-05-10T07:17:52;24.40;38.70
80236;DHT22;69543;42.138;24.742;2023-05-10T07:20:18;24.40;38.80
80236;DHT22;69543;42.138;24.742;2023-05-10T07:22:43;24.50;38.90
80236;DHT22;69543;42.138;24.742;2023-05-10T07:25:09;24.50;38.90
80236;DHT22;69543;42.138;24.742;2023-05-10T07:27:36;24.50;38.90
80236;DHT22;69543;42.138;24.742;2023-05-10T07:30:01;24.50;39.10
80236;DHT22;69543;42.138;24.742;2023-05-10T07:32:28;24.50;39.10
80236;DHT22;69543;42.138;24.742;2023-05-10T07:34:53;24.50;39.10
80236;DHT22;69543;42.138;24.742;2023-05-10T07:37:19;24.60;39.20
80236;DHT22;69543;42.138;24.742;2023-05-10T07:39:45;24.60;39.20
80236;DHT22;69543;42.138;24.742;2023-05-10T07:42:10;24.50;39.40
80236;DHT22;69543;42.138;24.742;2023-05-10T07:44:36;24.50;39.40
80236;DHT22;69543;42.138;24.742;2023-05-10T07:47:01;24.50;39.40
80236;DHT22;69543;42.138;24.742;2023-05-10T07:49:27;24.60;39.50
80236;DHT22;69543;42.138;24.742;2023-05-10T07:51:53;24.60;39.50
80236;DHT22;69543;42.138;24.742;2023-05-10T07:54:18;24.60;39.50
80236;DHT22;69543;42.138;24.742;2023-05-10T07:56:44;24.60;39.60
80236;DHT22;69543;42.138;24.742;2023-05-10T07:59:15;24.70;39.70
80236;DHT22;69543;42.138;24.742;2023-05-10T08:01:42;24.70;39.60
80236;DHT22;69543;42.138;24.742;2023-05-10T08:04:08;24.70;39.60
80236;DHT22;69543;42.138;24.742;2023-05-10T08:06:34;24.70;40.70
80236;DHT22;69543;42.138;24.742;2023-05-10T08:09:00;24.70;39.70
80236;DHT22;69543;42.138;24.742;2023-05-10T08:11:26;24.70;39.60
80236;DHT22;69543;42.138;24.742;2023-05-10T08:13:53;24.70;39.50
80236;DHT22;69543;42.138;24.742;2023-05-10T08:16:19;24.80;39.50
80236;DHT22;69543;42.138;24.742;2023-05-10T08:18:46;24.70;39.40
80236;DHT22;69543;42.138;24.742;2023-05-10T08:21:13;24.70;39.60
80236;DHT22;69543;42.138;24.742;2023-05-10T08:23:39;24.80;39.60
80236;DHT22;69543;42.138;24.742;2023-05-10T08:26:04;24.80;39.60
80236;DHT22;69543;42.138;24.742;2023-05-10T08:28:30;24.80;39.70
80236;DHT22;69543;42.138;24.742;2023-05-10T08:30:56;24.80;39.80
80236;DHT22;69543;42.138;24.742;2023-05-10T08:33:22;24.80;39.70
80236;DHT22;69543;42.138;24.742;2023-05-10T08:35:47;24.80;39.70
80236;DHT22;69543;42.138;24.742;2023-05-10T08:38:13;24.80;40.10
80236;DHT22;69543;42.138;24.742;2023-05-10T08:40:43;24.80;40.20
80236;DHT22;69543;42.138;24.742;2023-05-10T08:43:11;24.80;40.50
80236;DHT22;69543;42.138;24.742;2023-05-10T08:45:39;24.80;40.40
80236;DHT22;69543;42.138;24.742;2023-05-10T08:48:07;24.90;40.20
80236;DHT22;69543;42.138;24.742;2023-05-10T08:50:36;24.90;40.10
80236;DHT22;69543;42.138;24.742;2023-05-10T08:53:04;24.90;40.20
80236;DHT22;69543;42.138;24.742;2023-05-10T08:55:31;24.90;40.30
80236;DHT22;69543;42.138;24.742;2023-05-10T08:57:58;24.90;40.40
80236;DHT22;69543;42.138;24.742;2023-05-10T09:00:25;25.00;40.30
80236;DHT22;69543;42.138;24.742;2023-05-10T09:02:51;24.90;40.40
80236;DHT22;69543;42.138;24.742;2023-05-10T09:05:17;25.00;40.20
80236;DHT22;69543;42.138;24.742;2023-05-10T09:07:43;24.90;40.10
80236;DHT22;69543;42.138;24.742;2023-05-10T09:10:11;24.90;40.10
80236;DHT22;69543;42.138;24.742;2023-05-10T09:12:37;24.90;40.10
80236;DHT22;69543;42.138;24.742;2023-05-10T09:15:03;24.90;40.00
80236;DHT22;69543;42.138;24.742;2023-05-10T09:17:29;24.90;40.00
80236;DHT22;69543;42.138;24.742;2023-05-10T09:20:03;25.00;39.90
80236;DHT22;69543;42.138;24.742;2023-05-10T09:22:33;25.00;39.90
80236;DHT22;69543;42.138;24.742;2023-05-10T09:25:12;25.00;40.00
80236;DHT22;69543;42.138;24.742;2023-05-10T09:27:39;25.00;39.90
80236;DHT22;69543;42.138;24.742;2023-05-10T09:30:07;25.00;39.90
80236;DHT22;69543;42.138;24.742;2023-05-10T09:35:16;25.00;39.70
80236;DHT22;69543;42.138;24.742;2023-05-10T09:37:45;25.00;39.40
80236;DHT22;69543;42.138;24.742;2023-05-10T09:40:15;24.90;39.20
80236;DHT22;69543;42.138;24.742;2023-05-10T09:42:50;24.90;39.10
80236;DHT22;69543;42.138;24.742;2023-05-10T09:45:16;24.90;38.60
80236;DHT22;69543;42.138;24.742;2023-05-10T09:47:42;24.90;38.30
80236;DHT22;69543;42.138;24.742;2023-05-10T09:50:09;24.90;37.80
80236;DHT22;69543;42.138;24.742;2023-05-10T09:55:13;25.00;37.60
80236;DHT22;69543;42.138;24.742;2023-05-10T09:57:39;24.90;37.80
80236;DHT22;69543;42.138;24.742;2023-05-10T10:00:06;24.90;37.90
80236;DHT22;69543;42.138;24.742;2023-05-10T10:02:32;24.90;37.90
80236;DHT22;69543;42.138;24.742;2023-05-10T10:05:03;24.90;37.70
80236;DHT22;69543;42.138;24.742;2023-05-10T10:07:29;24.90;37.40
80236;DHT22;69543;42.138;24.742;2023-05-10T10:09:55;25.00;37.50
80236;DHT22;69543;42.138;24.742;2023-05-10T10:12:20;25.00;37.30
80236;DHT22;69543;42.138;24.742;2023-05-10T10:14:47;24.90;36.70
80236;DHT22;69543;42.138;24.742;2023-05-10T10:17:14;24.80;36.40
80236;DHT22;69543;42.138;24.742;2023-05-10T10:19:41;24.80;36.80
80236;DHT22;69543;42.138;24.742;2023-05-10T10:22:07;24.80;36.80
80236;DHT22;69543;42.138;24.742;2023-05-10T10:24:33;24.80;36.60
80236;DHT22;69543;42.138;24.742;2023-05-10T10:27:19;24.80;36.50
80236;DHT22;69543;42.138;24.742;2023-05-10T10:35:15;24.80;34.90
80236;DHT22;69543;42.138;24.742;2023-05-10T10:37:47;24.80;35.80
80236;DHT22;69543;42.138;24.742;2023-05-10T10:40:30;24.90;35.90
80236;DHT22;69543;42.138;24.742;2023-05-10T10:42:57;24.80;35.60
80236;DHT22;69543;42.138;24.742;2023-05-10T10:45:24;24.80;35.80
80236;DHT22;69543;42.138;24.742;2023-05-10T10:48:21;24.80;35.60
80236;DHT22;69543;42.138;24.742;2023-05-10T10:50:47;24.90;35.40
80236;DHT22;69543;42.138;24.742;2023-05-10T10:53:21;24.80;35.40
80236;DHT22;69543;42.138;24.742;2023-05-10T10:55:48;24.80;35.30
80236;DHT22;69543;42.138;24.742;2023-05-10T10:58:30;24.80;35.20
80236;DHT22;69543;42.138;24.742;2023-05-10T11:03:36;24.80;34.90
80236;DHT22;69543;42.138;24.742;2023-05-10T11:06:02;24.80;35.20
80236;DHT22;69543;42.138;24.742;2023-05-10T11:08:29;24.80;35.00
80236;DHT22;69543;42.138;24.742;2023-05-10T11:13:32;24.80;35.00
80236;DHT22;69543;42.138;24.742;2023-05-10T11:15:59;24.80;34.70
80236;DHT22;69543;42.138;24.742;2023-05-10T11:18:36;24.80;34.60
80236;DHT22;69543;42.138;24.742;2023-05-10T11:21:03;24.80;34.70
80236;DHT22;69543;42.138;24.742;2023-05-10T11:23:32;24.80;34.90
80236;DHT22;69543;42.138;24.742;2023-05-10T11:25:59;24.80;34.90
80236;DHT22;69543;42.138;24.742;2023-05-10T11:28:26;24.80;34.60
80236;DHT22;69543;42.138;24.742;2023-05-10T11:30:52;24.80;34.90
80236;DHT22;69543;42.138;24.742;2023-05-10T11:33:20;24.80;34.60
80236;DHT22;69543;42.138;24.742;2023-05-10T11:35:46;24.80;34.70
80236;DHT22;69543;42.138;24.742;2023-05-10T11:38:13;24.80;34.50
80236;DHT22;69543;42.138;24.742;2023-05-10T11:40:40;24.80;34.50
80236;DHT22;69543;42.138;24.742;2023-05-10T11:43:06;24.80;34.50
80236;DHT22;69543;42.138;24.742;2023-05-10T11:45:33;24.80;34.10
80236;DHT22;69543;42.138;24.742;2023-05-10T11:48:00;24.80;34.30
80236;DHT22;69543;42.138;24.742;2023-05-10T11:50:26;24.80;34.40
80236;DHT22;69543;42.138;24.742;2023-05-10T11:52:56;24.80;34.40
80236;DHT22;69543;42.138;24.742;2023-05-10T11:55:24;24.80;34.20
80236;DHT22;69543;42.138;24.742;2023-05-10T11:57:54;24.80;34.30
80236;DHT22;69543;42.138;24.742;2023-05-10T12:00:20;24.80;34.10
80236;DHT22;69543;42.138;24.742;2023-05-10T12:02:46;24.80;34.20
80236;DHT22;69543;42.138;24.742;2023-05-10T12:05:13;24.80;34.10
80236;DHT22;69543;42.138;24.742;2023-05-10T12:07:38;24.80;34.20
80236;DHT22;69543;42.138;24.742;2023-05-10T12:12:43;24.80;34.00
80236;DHT22;69543;42.138;24.742;2023-05-10T12:15:27;24.90;34.00
80236;DHT22;69543;42.138;24.742;2023-05-10T12:17:53;24.90;33.80
80236;DHT22;69543;42.138;24.742;2023-05-10T12:22:53;24.80;33.90
80236;DHT22;69543;42.138;24.742;2023-05-10T12:25:19;24.80;33.90
80236;DHT22;69543;42.138;24.742;2023-05-10T12:27:54;24.80;34.00
80236;DHT22;69543;42.138;24.742;2023-05-10T12:30:22;24.80;34.00
80236;DHT22;69543;42.138;24.742;2023-05-10T12:32:48;24.80;34.20
80236;DHT22;69543;42.138;24.742;2023-05-10T12:35:14;24.80;34.10
80236;DHT22;69543;42.138;24.742;2023-05-10T12:37:41;24.80;34.30
80236;DHT22;69543;42.138;24.742;2023-05-10T12:40:08;24.80;34.40
80236;DHT22;69543;42.138;24.742;2023-05-10T12:42:35;24.80;34.50
80236;DHT22;69543;42.138;24.742;2023-05-10T12:45:02;24.80;34.80
80236;DHT22;69543;42.138;24.742;2023-05-10T12:47:28;24.80;34.50
80236;DHT22;69543;42.138;24.742;2023-05-10T12:49:54;24.70;34.60
80236;DHT22;69543;42.138;24.742;2023-05-10T12:52:19;24.70;34.40
80236;DHT22;69543;42.138;24.742;2023-05-10T12:54:45;24.80;34.50
80236;DHT22;69543;42.138;24.742;2023-05-10T12:57:12;24.80;34.40
80236;DHT22;69543;42.138;24.742;2023-05-10T12:59:38;24.80;34.40
80236;DHT22;69543;42.138;24.742;2023-05-10T13:02:03;24.80;34.30
80236;DHT22;69543;42.138;24.742;2023-05-10T13:04:29;24.90;34.10
80236;DHT22;69543;42.138;24.742;2023-05-10T13:06:54;24.90;34.00
80236;DHT22;69543;42.138;24.742;2023-05-10T13:09:24;24.90;33.90
80236;DHT22;69543;42.138;24.742;2023-05-10T13:11:50;24.90;34.00
80236;DHT22;69543;42.138;24.742;2023-05-10T13:14:16;24.90;35.10
80236;DHT22;69543;42.138;24.742;2023-05-10T13:16:42;24.90;34.00
80236;DHT22;69543;42.138;24.742;2023-05-10T13:19:07;24.90;34.10
80236;DHT22;69543;42.138;24.742;2023-05-10T13:21:33;24.90;33.80
80236;DHT22;69543;42.138;24.742;2023-05-10T13:23:59;25.00;33.70
80236;DHT22;69543;42.138;24.742;2023-05-10T13:26:25;25.00;33.80
80236;DHT22;69543;42.138;24.742;2023-05-10T13:28:51;25.00;33.70
80236;DHT22;69543;42.138;24.742;2023-05-10T13:31:17;25.00;33.60
80236;DHT22;69543;42.138;24.742;2023-05-10T13:33:42;25.00;33.80
80236;DHT22;69543;42.138;24.742;2023-05-10T13:36:08;24.90;33.80
80236;DHT22;69543;42.138;24.742;2023-05-10T13:38:34;25.00;33.90
80236;DHT22;69543;42.138;24.742;2023-05-10T13:41:03;24.90;33.70
80236;DHT22;69543;42.138;24.742;2023-05-10T13:43:29;24.90;35.00
80236;DHT22;69543;42.138;24.742;2023-05-10T13:45:55;24.90;33.80
80236;DHT22;69543;42.138;24.742;2023-05-10T13:48:20;24.90;33.80
80236;DHT22;69543;42.138;24.742;2023-05-10T13:50:46;24.90;34.00
80236;DHT22;69543;42.138;24.742;2023-05-10T13:53:12;24.90;34.20
80236;DHT22;69543;42.138;24.742;2023-05-10T13:59:00;24.90;33.90
80236;DHT22;69543;42.138;24.742;2023-05-10T14:01:26;24.90;33.60
80236;DHT22;69543;42.138;24.742;2023-05-10T14:03:52;24.90;33.60
80236;DHT22;69543;42.138;24.742;2023-05-10T14:06:17;24.90;33.50
80236;DHT22;69543;42.138;24.742;2023-05-10T14:08:43;24.90;33.50
80236;DHT22;69543;42.138;24.742;2023-05-10T14:11:09;24.90;33.30
80236;DHT22;69543;42.138;24.742;2023-05-10T14:13:34;24.90;33.30
80236;DHT22;69543;42.138;24.742;2023-05-10T14:16:00;24.90;33.40
80236;DHT22;69543;42.138;24.742;2023-05-10T14:18:26;24.80;34.60
80236;DHT22;69543;42.138;24.742;2023-05-10T14:20:52;24.90;33.60
80236;DHT22;69543;42.138;24.742;2023-05-10T14:23:18;24.90;35.00
80236;DHT22;69543;42.138;24.742;2023-05-10T14:25:49;24.90;34.30
80236;DHT22;69543;42.138;24.742;2023-05-10T14:28:15;24.90;33.80
80236;DHT22;69543;42.138;24.742;2023-05-10T14:30:41;25.00;34.10
80236;DHT22;69543;42.138;24.742;2023-05-10T14:33:06;25.00;34.20
80236;DHT22;69543;42.138;24.742;2023-05-10T14:35:33;25.00;34.10
80236;DHT22;69543;42.138;24.742;2023-05-10T14:37:58;25.00;33.80
80236;DHT22;69543;42.138;24.742;2023-05-10T14:40:24;25.00;33.60
80236;DHT22;69543;42.138;24.742;2023-05-10T14:42:50;25.00;33.20
80236;DHT22;69543;42.138;24.742;2023-05-10T14:45:17;25.00;33.00
80236;DHT22;69543;42.138;24.742;2023-05-10T14:47:43;25.00;33.40
80236;DHT22;69543;42.138;24.742;2023-05-10T14:50:09;25.00;33.40
80236;DHT22;69543;42.138;24.742;2023-05-10T14:55:57;25.00;33.30
80236;DHT22;69543;42.138;24.742;2023-05-10T14:58:22;24.80;33.50
80236;DHT22;69543;42.138;24.742;2023-05-10T15:00:48;24.80;33.50
80236;DHT22;69543;42.138;24.742;2023-05-10T15:03:15;24.80;33.70
80236;DHT22;69543;42.138;24.742;2023-05-10T15:05:41;24.80;33.60
80236;DHT22;69543;42.138;24.742;2023-05-10T15:08:06;24.80;33.50
80236;DHT22;69543;42.138;24.742;2023-05-10T15:10:32;24.80;33.50
80236;DHT22;69543;42.138;24.742;2023-05-10T15:12:58;24.80;33.20
80236;DHT22;69543;42.138;24.742;2023-05-10T15:15:24;24.80;33.20
80236;DHT22;69543;42.138;24.742;2023-05-10T15:17:50;24.80;33.00
80236;DHT22;69543;42.138;24.742;2023-05-10T15:20:15;24.80;33.40
80236;DHT22;69543;42.138;24.742;2023-05-10T15:28:20;25.60;31.70
80236;DHT22;69543;42.138;24.742;2023-05-10T15:30:45;25.90;31.60
80236;DHT22;69543;42.138;24.742;2023-05-10T15:33:11;25.90;31.40
80236;DHT22;69543;42.138;24.742;2023-05-10T15:35:36;25.90;31.50
80236;DHT22;69543;42.138;24.742;2023-05-10T15:38:03;25.80;31.40
80236;DHT22;69543;42.138;24.742;2023-05-10T15:40:29;25.80;31.50
80236;DHT22;69543;42.138;24.742;2023-05-10T15:42:54;25.70;31.30
80236;DHT22;69543;42.138;24.742;2023-05-10T15:45:20;25.70;31.40
80236;DHT22;69543;42.138;24.742;2023-05-10T15:47:46;25.70;31.30
80236;DHT22;69543;42.138;24.742;2023-05-10T15:50:12;25.70;31.20
80236;DHT22;69543;42.138;24.742;2023-05-10T15:52:37;25.60;31.10
80236;DHT22;69543;42.138;24.742;2023-05-10T15:55:03;25.60;31.10
80236;DHT22;69543;42.138;24.742;2023-05-10T15:57:29;25.60;31.20
80236;DHT22;69543;42.138;24.742;2023-05-10T15:59:55;25.60;31.30
80236;DHT22;69543;42.138;24.742;2023-05-10T16:02:20;25.50;31.50
80236;DHT22;69543;42.138;24.742;2023-05-10T16:04:47;25.50;31.40
80236;DHT22;69543;42.138;24.742;2023-05-10T16:07:13;25.50;31.40
80236;DHT22;69543;42.138;24.742;2023-05-10T16:09:38;25.50;31.40
80236;DHT22;69543;42.138;24.742;2023-05-10T16:12:04;25.50;31.40